Time;durP1;ratioP1;P1;durP2;ratioP2;P2;SDS_P1;SDS_P2;PMS_P1;PMS_P2;Temp;Humidity;BMP_temperature;BMP_pressure;BME280_temperature;BME280_humidity;BME280_pressure;Samples;Min_cycle;Max_cycle;Signal;HPM_P1;HPM_P2
2022/12/19 00:00:38;;;;;;;17.97;12.70;;;-0.90;99.90;;;;;;5062741;28;20283;-96
2022/12/19 00:03:08;;;;;;;14.93;11.73;;;-1.00;99.90;;;;;;5063734;28;20202;-96
2022/12/19 00:05:40;;;;;;;24.27;14.23;;;-0.90;99.90;;;;;;5067340;28;20249;-95
2022/12/19 00:08:15;;;;;;;14.67;11.83;;;-0.90;99.90;;;;;;5065713;28;20221;-96
2022/12/19 00:10:55;;;;;;;15.10;13.00;;;-0.90;99.90;;;;;;5066606;28;20232;-95
2022/12/19 00:13:26;;;;;;;18.70;13.27;;;-1.00;99.90;;;;;;5066040;28;20198;-96
2022/12/19 00:16:05;;;;;;;17.90;13.03;;;-1.00;99.90;;;;;;5063518;28;20264;-96
2022/12/19 00:18:35;;;;;;;18.67;13.27;;;-1.00;99.90;;;;;;5062832;28;20218;-96
2022/12/19 00:21:05;;;;;;;18.50;13.57;;;-1.00;99.90;;;;;;5062701;28;20229;-95
2022/12/19 00:23:35;;;;;;;15.97;12.93;;;-1.00;99.90;;;;;;5063779;28;20232;-95
2022/12/19 00:26:14;;;;;;;15.33;12.63;;;-1.00;99.90;;;;;;5064448;28;20236;-96
2022/12/19 00:28:45;;;;;;;16.37;12.93;;;-1.00;99.90;;;;;;5060729;28;20269;-95
2022/12/19 00:31:16;;;;;;;14.90;12.97;;;-1.00;99.90;;;;;;5062969;28;20232;-96
2022/12/19 00:33:45;;;;;;;16.27;13.53;;;-1.00;99.90;;;;;;5063445;28;20232;-96
2022/12/19 00:36:16;;;;;;;19.23;14.13;;;-1.00;99.90;;;;;;5063158;28;20205;-95
2022/12/19 00:38:52;;;;;;;15.20;13.60;;;-1.00;99.90;;;;;;5063860;28;20235;-96
2022/12/19 00:41:23;;;;;;;13.87;11.27;;;-1.00;99.90;;;;;;5062991;28;20214;-96
2022/12/19 00:43:53;;;;;;;15.93;12.87;;;-1.00;99.90;;;;;;5062573;28;20237;-95
2022/12/19 00:46:24;;;;;;;12.50;11.20;;;-1.00;99.90;;;;;;5063579;28;20200;-96
2022/12/19 00:48:57;;;;;;;14.10;11.30;;;-1.00;99.90;;;;;;5067583;28;20209;-96
2022/12/19 00:51:31;;;;;;;16.03;12.53;;;-1.00;99.90;;;;;;5068173;28;20217;-96
2022/12/19 00:54:00;;;;;;;14.43;12.27;;;-0.90;99.90;;;;;;5065398;28;20233;-95
2022/12/19 00:56:33;;;;;;;12.87;10.97;;;-1.00;99.90;;;;;;5061416;28;20209;-95
2022/12/19 00:59:06;;;;;;;14.73;11.40;;;-1.00;99.90;;;;;;5055539;28;20212;-95
2022/12/19 01:01:38;;;;;;;18.73;12.70;;;-0.90;99.90;;;;;;5055166;28;20226;-95
2022/12/19 01:04:11;;;;;;;16.00;12.20;;;-1.00;99.90;;;;;;5055670;28;20253;-95
2022/12/19 01:06:57;;;;;;;15.20;11.60;;;-1.00;99.90;;;;;;5055446;28;20206;-95
2022/12/19 01:09:30;;;;;;;16.13;12.67;;;-1.00;99.90;;;;;;5056955;28;20236;-95
2022/12/19 01:14:44;;;;;;;15.00;12.17;;;-1.00;99.90;;;;;;5055788;28;20230;-94
2022/12/19 01:17:14;;;;;;;15.73;12.07;;;-1.00;99.90;;;;;;5062630;28;20238;-95
2022/12/19 01:19:43;;;;;;;17.23;13.13;;;-1.00;99.90;;;;;;5058924;28;20210;-96
2022/12/19 01:22:14;;;;;;;17.90;13.27;;;-1.00;99.90;;;;;;5063144;28;20264;-96
2022/12/19 01:24:43;;;;;;;11.97;10.37;;;-0.90;99.90;;;;;;5067800;28;20221;-96
2022/12/19 01:27:12;;;;;;;18.57;13.13;;;-0.90;99.90;;;;;;5065371;28;20255;-96
2022/12/19 01:29:41;;;;;;;17.07;12.00;;;-0.90;99.90;;;;;;5058304;28;20213;-96
2022/12/19 01:32:22;;;;;;;12.83;10.97;;;-1.00;99.90;;;;;;5058372;28;20209;-96
2022/12/19 01:34:51;;;;;;;11.37;10.17;;;-0.90;99.90;;;;;;5058758;28;20221;-96
2022/12/19 01:37:20;;;;;;;19.07;11.80;;;-0.90;99.90;;;;;;5059659;28;20297;-95
2022/12/19 01:39:49;;;;;;;13.07;10.73;;;-0.90;99.90;;;;;;5061798;28;20212;-96
2022/12/19 01:42:21;;;;;;;12.83;9.83;;;-0.90;99.90;;;;;;5060171;28;20309;-96
2022/12/19 01:45:26;;;;;;;14.30;11.37;;;-0.90;99.90;;;;;;5059360;28;20267;-96
2022/12/19 01:48:13;;;;;;;16.37;10.37;;;-0.90;99.90;;;;;;5035943;28;20314;-95
2022/12/19 01:50:56;;;;;;;13.07;10.80;;;-0.90;99.90;;;;;;5058355;28;20240;-96
2022/12/19 01:53:37;;;;;;;16.23;11.40;;;-0.90;99.90;;;;;;5058364;28;20208;-95
2022/12/19 01:56:17;;;;;;;14.17;11.53;;;-0.80;99.90;;;;;;5059062;28;20228;-96
2022/12/19 01:58:50;;;;;;;16.33;11.93;;;-0.90;99.90;;;;;;5058191;28;20212;-96
2022/12/19 02:01:33;;;;;;;11.87;10.07;;;-0.90;99.90;;;;;;5058437;28;20213;-94
2022/12/19 02:04:04;;;;;;;15.77;12.07;;;-0.90;99.90;;;;;;5058420;28;20226;-96
2022/12/19 02:06:35;;;;;;;13.37;11.43;;;-0.90;99.90;;;;;;5058663;28;20214;-96
2022/12/19 02:09:03;;;;;;;13.77;11.47;;;-0.90;99.90;;;;;;5057813;28;20210;-96
2022/12/19 02:11:32;;;;;;;12.47;10.30;;;-0.90;99.90;;;;;;5058289;28;20206;-96
2022/12/19 02:14:03;;;;;;;12.77;11.23;;;-0.90;99.90;;;;;;5059665;28;20217;-96
2022/12/19 02:16:43;;;;;;;12.57;11.23;;;-0.90;99.90;;;;;;5058989;28;20205;-96
2022/12/19 02:19:41;;;;;;;16.00;10.80;;;-0.90;99.90;;;;;;5059891;28;20205;-96
2022/12/19 02:22:17;;;;;;;12.83;10.70;;;-0.90;99.90;;;;;;5058033;28;20230;-96
2022/12/19 02:25:17;;;;;;;11.70;10.10;;;-0.90;99.90;;;;;;5058085;28;20312;-96
2022/12/19 02:28:11;;;;;;;14.00;9.90;;;-0.90;99.90;;;;;;5055998;28;20206;-96
2022/12/19 02:30:53;;;;;;;15.23;11.87;;;-0.90;99.90;;;;;;5057644;28;20231;-96
2022/12/19 02:33:30;;;;;;;18.73;11.87;;;-0.90;99.90;;;;;;5060474;28;20204;-96
2022/12/19 02:36:08;;;;;;;14.77;11.30;;;-0.90;99.90;;;;;;5064350;28;20231;-96
2022/12/19 02:38:47;;;;;;;13.27;10.83;;;-1.00;99.90;;;;;;5067588;28;20201;-96
2022/12/19 02:41:25;;;;;;;14.67;11.03;;;-1.00;99.90;;;;;;5063261;28;20209;-95
2022/12/19 02:43:56;;;;;;;12.90;10.47;;;-0.90;99.90;;;;;;5062706;28;20252;-96
2022/12/19 02:46:30;;;;;;;14.33;10.77;;;-0.90;99.90;;;;;;5065350;28;20236;-96
2022/12/19 02:49:04;;;;;;;12.13;10.50;;;-0.90;99.90;;;;;;5067779;28;20204;-96
2022/12/19 02:51:35;;;;;;;12.30;10.50;;;-1.00;99.90;;;;;;5072085;28;20220;-96
2022/12/19 02:54:09;;;;;;;13.10;10.10;;;-0.90;99.90;;;;;;5070242;28;20229;-96
2022/12/19 02:56:51;;;;;;;11.53;10.33;;;-0.90;99.90;;;;;;5068643;28;20213;-96
2022/12/19 02:59:35;;;;;;;11.80;10.60;;;-0.90;99.90;;;;;;5068847;28;20209;-96
2022/12/19 03:02:14;;;;;;;15.20;10.80;;;-0.90;99.90;;;;;;5069818;28;20236;-96
2022/12/19 03:04:59;;;;;;;15.83;10.07;;;-0.90;99.90;;;;;;5069103;28;20221;-96
2022/12/19 03:07:35;;;;;;;13.17;10.33;;;-0.90;99.90;;;;;;5067280;28;20303;-96
2022/12/19 03:10:21;;;;;;;12.27;9.20;;;-0.90;99.90;;;;;;5067740;28;20225;-96
2022/12/19 03:13:07;;;;;;;12.53;10.90;;;-0.90;99.90;;;;;;5068679;28;20213;-96
2022/12/19 03:15:40;;;;;;;14.00;10.17;;;-0.80;99.90;;;;;;5068283;28;20240;-96
2022/12/19 03:18:12;;;;;;;14.10;10.30;;;-0.90;99.90;;;;;;5066677;28;20220;-96
2022/12/19 03:20:48;;;;;;;12.37;10.47;;;-0.90;99.90;;;;;;5066715;28;20284;-96
2022/12/19 03:23:23;;;;;;;12.97;10.37;;;-0.80;99.90;;;;;;5067665;28;20276;-96
2022/12/19 03:26:07;;;;;;;17.50;10.47;;;-0.80;99.90;;;;;;5068258;28;20206;-96
2022/12/19 03:28:43;;;;;;;11.23;10.00;;;-0.80;99.90;;;;;;5067568;28;20194;-96
2022/12/19 03:31:22;;;;;;;12.60;10.77;;;-0.70;99.90;;;;;;5066545;28;20198;-96
2022/12/19 03:34:02;;;;;;;15.47;11.00;;;-0.70;99.90;;;;;;5067307;28;20236;-96
2022/12/19 03:36:46;;;;;;;12.67;10.87;;;-0.70;99.90;;;;;;5065938;28;20206;-96
2022/12/19 03:39:17;;;;;;;11.97;9.87;;;-0.70;99.90;;;;;;5069002;28;20206;-96
2022/12/19 03:44:39;;;;;;;12.23;10.30;;;-0.60;99.90;;;;;;5065052;28;20249;-96
2022/12/19 03:47:13;;;;;;;15.40;11.07;;;-0.70;99.90;;;;;;5067921;28;20198;-96
2022/12/19 03:49:49;;;;;;;12.37;10.20;;;-0.60;99.90;;;;;;5068007;28;20236;-96
2022/12/19 03:52:30;;;;;;;14.20;10.83;;;-0.60;99.90;;;;;;5068479;28;20205;-96
2022/12/19 03:55:04;;;;;;;15.27;10.67;;;-0.60;99.90;;;;;;5064991;28;20242;-96
2022/12/19 03:57:40;;;;;;;19.50;11.43;;;-0.60;99.90;;;;;;5065653;28;20201;-96
2022/12/19 04:00:16;;;;;;;13.97;11.43;;;-0.60;99.90;;;;;;5066202;28;20236;-96
2022/12/19 04:02:52;;;;;;;12.23;10.70;;;-0.60;99.90;;;;;;5065777;28;20220;-96
2022/12/19 04:05:25;;;;;;;15.80;11.53;;;-0.60;99.90;;;;;;5065032;28;20243;-96
2022/12/19 04:07:57;;;;;;;13.47;10.73;;;-0.60;99.90;;;;;;5065978;28;20221;-96
2022/12/19 04:10:28;;;;;;;16.43;10.53;;;-0.60;99.90;;;;;;5064032;28;20293;-96
2022/12/19 04:13:01;;;;;;;11.20;10.00;;;-0.60;99.90;;;;;;5065131;28;20232;-96
2022/12/19 04:15:39;;;;;;;15.23;10.57;;;-0.60;99.90;;;;;;5063432;28;20232;-96
2022/12/19 04:18:13;;;;;;;15.10;11.07;;;-0.60;99.90;;;;;;5064429;28;20210;-96
2022/12/19 04:20:50;;;;;;;11.37;10.07;;;-0.50;99.90;;;;;;5064444;28;20260;-96
2022/12/19 04:23:25;;;;;;;15.07;11.70;;;-0.50;99.90;;;;;;5065280;28;20236;-96
2022/12/19 04:26:03;;;;;;;21.17;11.70;;;-0.50;99.90;;;;;;5064271;28;20351;-96
2022/12/19 04:28:36;;;;;;;12.07;9.30;;;-0.50;99.90;;;;;;5061127;28;20205;-96
2022/12/19 04:31:13;;;;;;;15.17;11.53;;;-0.50;99.90;;;;;;5064683;28;20214;-96
2022/12/19 04:33:42;;;;;;;15.53;10.87;;;-0.60;99.90;;;;;;5065813;28;20208;-96
2022/12/19 04:36:13;;;;;;;12.70;10.93;;;-0.50;99.90;;;;;;5063113;28;20233;-96
2022/12/19 04:38:41;;;;;;;16.00;12.13;;;-0.60;99.90;;;;;;5062109;28;20231;-96
2022/12/19 04:41:11;;;;;;;15.73;12.33;;;-0.60;99.90;;;;;;5063074;28;20269;-96
2022/12/19 04:43:39;;;;;;;13.47;11.73;;;-0.60;99.90;;;;;;5060689;28;20224;-96
2022/12/19 04:46:10;;;;;;;15.93;11.73;;;-0.70;99.90;;;;;;5059984;28;20229;-96
2022/12/19 04:48:39;;;;;;;16.37;12.73;;;-0.70;99.90;;;;;;5060305;28;20277;-95
2022/12/19 04:51:08;;;;;;;14.43;11.43;;;-0.80;99.90;;;;;;5055504;28;20206;-95
2022/12/19 04:53:38;;;;;;;15.17;13.20;;;-0.80;99.90;;;;;;5055382;28;20202;-96
2022/12/19 04:56:07;;;;;;;15.50;11.77;;;-0.90;99.90;;;;;;5055265;28;20206;-95
2022/12/19 04:58:35;;;;;;;15.23;12.53;;;-0.90;99.90;;;;;;5055070;28;20205;-95
2022/12/19 05:01:05;;;;;;;15.67;12.80;;;-1.00;99.90;;;;;;5055248;28;20220;-94
2022/12/19 05:03:33;;;;;;;17.33;12.80;;;-1.10;99.90;;;;;;5055243;28;20212;-95
2022/12/19 05:06:07;;;;;;;13.93;12.23;;;-1.10;99.90;;;;;;5055028;28;20252;-96
2022/12/19 05:08:37;;;;;;;22.67;14.30;;;-1.20;99.90;;;;;;5054719;28;20204;-94
2022/12/19 05:11:07;;;;;;;17.10;13.13;;;-1.20;99.90;;;;;;5055069;28;20248;-95
2022/12/19 05:13:35;;;;;;;15.57;13.27;;;-1.20;99.90;;;;;;5055619;28;20271;-96
2022/12/19 05:16:05;;;;;;;20.20;13.40;;;-1.20;99.90;;;;;;5055441;28;20218;-95
2022/12/19 05:18:35;;;;;;;19.20;13.90;;;-1.20;99.90;;;;;;5056173;28;20216;-95
2022/12/19 05:21:04;;;;;;;17.37;13.77;;;-1.20;99.90;;;;;;5055863;28;20208;-95
2022/12/19 05:23:32;;;;;;;15.57;13.40;;;-1.30;99.90;;;;;;5058545;28;20273;-95
2022/12/19 05:26:04;;;;;;;20.20;15.00;;;-1.30;99.90;;;;;;5057447;28;20276;-95
2022/12/19 05:28:33;;;;;;;19.13;13.10;;;-1.30;99.90;;;;;;5055515;28;20241;-95
2022/12/19 05:31:06;;;;;;;19.17;13.60;;;-1.30;99.90;;;;;;5055665;28;20300;-94
2022/12/19 05:33:35;;;;;;;18.70;13.73;;;-1.30;99.90;;;;;;5058596;28;20210;-96
2022/12/19 05:36:05;;;;;;;17.63;14.07;;;-1.30;99.90;;;;;;5056042;28;20210;-94
2022/12/19 05:38:33;;;;;;;20.77;14.40;;;-1.40;99.90;;;;;;5056596;28;20212;-96
2022/12/19 05:41:09;;;;;;;22.97;15.33;;;-1.40;99.90;;;;;;5056192;28;20210;-95
2022/12/19 05:43:37;;;;;;;19.13;14.30;;;-1.40;99.90;;;;;;5054737;28;20269;-95
2022/12/19 05:46:06;;;;;;;16.27;13.67;;;-1.40;99.90;;;;;;5061834;28;20209;-94
2022/12/19 05:48:35;;;;;;;22.00;14.97;;;-1.40;99.90;;;;;;5054031;28;20225;-95
2022/12/19 05:51:03;;;;;;;19.57;14.77;;;-1.40;99.90;;;;;;5054609;28;20205;-96
2022/12/19 05:53:35;;;;;;;19.87;14.37;;;-1.40;99.90;;;;;;5054672;28;20292;-94
2022/12/19 05:56:20;;;;;;;19.57;13.73;;;-1.40;99.90;;;;;;5052690;28;20217;-96
2022/12/19 05:58:54;;;;;;;18.23;14.53;;;-1.40;99.90;;;;;;5056205;28;20212;-95
2022/12/19 06:01:37;;;;;;;18.73;14.87;;;-1.40;99.90;;;;;;5046055;28;20217;-94
2022/12/19 06:04:06;;;;;;;24.97;16.70;;;-1.40;99.90;;;;;;5056533;28;20221;-95
2022/12/19 06:06:34;;;;;;;20.03;15.27;;;-1.40;99.90;;;;;;5054669;28;20212;-94
2022/12/19 06:09:03;;;;;;;16.60;13.33;;;-1.40;99.90;;;;;;5054073;28;20247;-96
2022/12/19 06:11:33;;;;;;;24.27;14.93;;;-1.60;99.90;;;;;;5053984;28;20208;-96
2022/12/19 06:14:01;;;;;;;20.87;15.97;;;-1.60;99.90;;;;;;5054506;28;20221;-95
2022/12/19 06:16:30;;;;;;;24.33;17.47;;;-1.60;99.90;;;;;;5054360;28;20212;-96
2022/12/19 06:18:58;;;;;;;17.70;14.47;;;-1.60;99.90;;;;;;5054226;28;20202;-95
2022/12/19 06:21:26;;;;;;;19.53;15.60;;;-1.60;99.90;;;;;;5053911;28;20210;-95
2022/12/19 06:23:55;;;;;;;24.53;16.00;;;-1.70;99.90;;;;;;5053732;28;20230;-93
2022/12/19 06:26:23;;;;;;;21.67;15.83;;;-1.70;99.90;;;;;;5053635;28;20321;-96
2022/12/19 06:29:01;;;;;;;19.63;15.20;;;-1.70;99.90;;;;;;5053884;28;20202;-93
2022/12/19 06:31:30;;;;;;;24.40;16.90;;;-1.70;99.90;;;;;;5053923;28;20208;-94
2022/12/19 06:33:58;;;;;;;23.77;16.43;;;-1.70;99.90;;;;;;5053365;28;20222;-94
2022/12/19 06:36:28;;;;;;;19.50;15.07;;;-1.70;99.90;;;;;;5053724;28;20265;-94
2022/12/19 06:38:58;;;;;;;22.90;15.17;;;-1.70;99.90;;;;;;5053617;28;20257;-95
2022/12/19 06:44:16;;;;;;;25.03;15.17;;;-1.60;99.90;;;;;;5053634;28;20248;-94
2022/12/19 06:46:44;;;;;;;25.97;16.67;;;-1.60;99.90;;;;;;5053233;28;20255;-94
2022/12/19 06:49:13;;;;;;;25.60;16.77;;;-1.60;99.90;;;;;;5053277;28;20208;-94
2022/12/19 06:51:41;;;;;;;28.40;16.90;;;-1.50;99.90;;;;;;5053573;28;20206;-94
2022/12/19 06:54:18;;;;;;;21.90;15.80;;;-1.60;99.90;;;;;;5052936;28;20225;-94
2022/12/19 06:56:46;;;;;;;21.17;14.77;;;-1.50;99.90;;;;;;5053449;28;20208;-94
2022/12/19 06:59:16;;;;;;;29.90;17.30;;;-1.50;99.90;;;;;;5053329;28;20288;-94
2022/12/19 07:01:54;;;;;;;25.00;15.97;;;-1.50;99.90;;;;;;5052845;28;20216;-94
2022/12/19 07:04:29;;;;;;;24.93;15.00;;;-1.50;99.90;;;;;;5053182;28;20229;-95
2022/12/19 07:07:00;;;;;;;21.83;16.63;;;-1.60;99.90;;;;;;5053218;28;20280;-94
2022/12/19 07:09:30;;;;;;;21.70;15.97;;;-1.60;99.90;;;;;;5053408;28;20260;-94
2022/12/19 07:11:58;;;;;;;18.00;14.40;;;-1.60;99.90;;;;;;5053491;28;20237;-94
2022/12/19 07:14:28;;;;;;;19.30;14.27;;;-1.60;99.90;;;;;;5055354;28;20221;-93
2022/12/19 07:16:59;;;;;;;20.97;14.80;;;-1.60;99.90;;;;;;5057369;28;20201;-94
2022/12/19 07:19:28;;;;;;;18.47;14.00;;;-1.60;99.90;;;;;;5057260;28;20208;-94
2022/12/19 07:21:57;;;;;;;25.20;13.77;;;-1.50;99.90;;;;;;5057166;28;20205;-94
2022/12/19 07:24:25;;;;;;;18.67;14.63;;;-1.50;99.90;;;;;;5057208;28;20312;-94
2022/12/19 07:26:54;;;;;;;18.57;13.67;;;-1.50;99.90;;;;;;5056430;28;20281;-95
2022/12/19 07:29:22;;;;;;;16.80;13.43;;;-1.50;99.90;;;;;;5056680;28;20210;-93
2022/12/19 07:31:52;;;;;;;20.83;13.73;;;-1.60;99.90;;;;;;5056486;28;20209;-94
2022/12/19 07:34:30;;;;;;;18.50;13.13;;;-1.60;99.90;;;;;;5056662;28;20230;-94
2022/12/19 07:36:59;;;;;;;20.80;13.07;;;-1.50;99.90;;;;;;5056544;28;20223;-93
2022/12/19 07:39:27;;;;;;;18.20;12.63;;;-1.50;99.90;;;;;;5056687;28;20211;-95
2022/12/19 07:41:56;;;;;;;22.47;14.70;;;-1.50;99.90;;;;;;5056743;28;20202;-94
2022/12/19 07:44:24;;;;;;;22.83;14.63;;;-1.50;99.90;;;;;;5056636;28;20226;-94
2022/12/19 07:46:54;;;;;;;17.87;13.03;;;-1.50;99.90;;;;;;5056147;28;20253;-94
2022/12/19 07:49:22;;;;;;;21.23;13.90;;;-1.50;99.90;;;;;;5056648;28;20202;-94
2022/12/19 07:51:50;;;;;;;17.10;12.73;;;-1.50;99.90;;;;;;5056447;28;20300;-95
2022/12/19 07:54:19;;;;;;;15.40;11.73;;;-1.50;99.90;;;;;;5056054;28;20226;-95
2022/12/19 07:56:47;;;;;;;18.83;13.87;;;-1.50;99.90;;;;;;5056288;28;20202;-94
2022/12/19 07:59:15;;;;;;;17.10;13.30;;;-1.40;99.90;;;;;;5056269;28;20202;-95
2022/12/19 08:01:44;;;;;;;19.17;14.33;;;-1.40;99.90;;;;;;5056062;28;20205;-93
2022/12/19 08:04:14;;;;;;;19.10;11.87;;;-1.40;99.90;;;;;;5056608;28;20234;-94
2022/12/19 08:06:42;;;;;;;19.53;14.67;;;-1.40;99.90;;;;;;5056093;28;20218;-94
2022/12/19 08:09:14;;;;;;;19.53;12.93;;;-1.40;99.90;;;;;;5056012;28;20198;-94
2022/12/19 08:11:43;;;;;;;19.20;13.10;;;-1.40;99.90;;;;;;5056420;28;20273;-94
2022/12/19 08:14:11;;;;;;;20.73;12.67;;;-1.40;99.90;;;;;;5056082;28;20309;-94
2022/12/19 08:16:39;;;;;;;32.33;15.73;;;-1.40;99.90;;;;;;5056116;28;20288;-94
2022/12/19 08:19:29;;;;;;;31.60;13.20;;;-1.40;99.90;;;;;;5055781;28;20205;-92
2022/12/19 08:22:00;;;;;;;18.87;12.90;;;-1.40;99.90;;;;;;5056759;28;20213;-96
2022/12/19 08:24:30;;;;;;;20.57;13.67;;;-1.40;99.90;;;;;;5056498;28;20253;-95
2022/12/19 08:27:00;;;;;;;17.67;14.17;;;-1.30;99.90;;;;;;5056766;28;20318;-95
2022/12/19 08:29:34;;;;;;;18.40;13.67;;;-1.30;99.90;;;;;;5060414;28;20300;-95
2022/12/19 08:32:03;;;;;;;17.87;14.07;;;-1.20;99.90;;;;;;5061683;28;20267;-95
2022/12/19 08:34:33;;;;;;;17.80;13.77;;;-1.20;99.90;;;;;;5063321;28;20233;-94
2022/12/19 08:37:01;;;;;;;26.53;15.93;;;-1.10;99.90;;;;;;5056219;28;20202;-95
2022/12/19 08:39:30;;;;;;;22.57;13.77;;;-1.10;99.90;;;;;;5061169;28;20296;-95
2022/12/19 08:41:59;;;;;;;23.03;14.57;;;-1.10;99.90;;;;;;5057637;28;20259;-95
2022/12/19 08:44:28;;;;;;;21.30;14.43;;;-1.10;99.90;;;;;;5057802;28;20281;-96
2022/12/19 08:46:56;;;;;;;21.70;13.20;;;-1.10;99.90;;;;;;5056200;28;20225;-95
2022/12/19 08:49:25;;;;;;;20.23;13.53;;;-1.00;99.90;;;;;;5057455;28;20261;-96
2022/12/19 08:51:55;;;;;;;18.80;12.87;;;-1.00;99.90;;;;;;5057110;28;20273;-95
2022/12/19 08:54:26;;;;;;;18.27;13.07;;;-1.00;99.90;;;;;;5057089;28;20224;-95
2022/12/19 08:56:56;;;;;;;19.33;14.57;;;-0.90;99.90;;;;;;5056912;28;20217;-96
2022/12/19 08:59:27;;;;;;;18.80;14.07;;;-1.00;99.90;;;;;;5058787;28;20229;-94
2022/12/19 09:01:59;;;;;;;18.73;13.93;;;-1.00;99.90;;;;;;5058576;28;20237;-95
2022/12/19 09:04:28;;;;;;;16.57;13.13;;;-1.00;99.90;;;;;;5057174;28;20226;-96
2022/12/19 09:07:18;;;;;;;19.17;13.93;;;-1.00;99.90;;;;;;5056472;28;20232;-95
2022/12/19 09:09:47;;;;;;;15.07;12.37;;;-1.00;99.90;;;;;;5057280;28;20214;-95
2022/12/19 09:12:16;;;;;;;18.17;13.87;;;-1.00;99.90;;;;;;5057678;28;20292;-95
2022/12/19 09:14:44;;;;;;;17.70;12.57;;;-1.00;99.90;;;;;;5057316;28;20257;-96
2022/12/19 09:17:13;;;;;;;27.53;12.57;;;-1.00;99.90;;;;;;5056113;28;20227;-95
2022/12/19 09:19:43;;;;;;;15.37;12.67;;;-1.00;99.90;;;;;;5056717;28;20206;-96
2022/12/19 09:22:15;;;;;;;22.33;12.17;;;-1.00;99.90;;;;;;5056864;28;20296;-96
2022/12/19 09:24:52;;;;;;;21.20;14.73;;;-1.00;99.90;;;;;;5055905;28;20221;-95
2022/12/19 09:27:20;;;;;;;17.40;12.93;;;-1.00;99.90;;;;;;5055922;28;20221;-95
2022/12/19 09:29:49;;;;;;;16.50;13.07;;;-1.00;99.90;;;;;;5056190;28;20205;-94
2022/12/19 09:32:18;;;;;;;16.47;12.53;;;-1.00;99.90;;;;;;5057053;28;20206;-94
2022/12/19 09:34:46;;;;;;;20.57;13.47;;;-1.00;99.90;;;;;;5057449;28;20229;-96
2022/12/19 09:37:19;;;;;;;18.53;12.77;;;-1.00;99.90;;;;;;5056297;28;20196;-95
2022/12/19 09:39:49;;;;;;;17.90;12.87;;;-0.90;99.90;;;;;;5055193;28;20205;-94
2022/12/19 09:42:50;;;;;;;18.50;13.53;;;-0.90;99.90;;;;;;5067844;28;20209;-96
2022/12/19 09:45:40;;;;;;;19.10;13.00;;;-0.80;99.90;;;;;;5055121;28;20229;-95
2022/12/19 09:48:19;;;;;;;16.83;13.37;;;-0.80;99.90;;;;;;5054834;28;20217;-94
2022/12/19 09:50:58;;;;;;;18.27;13.47;;;-0.80;99.90;;;;;;5054932;28;20209;-94
2022/12/19 09:53:51;;;;;;;22.10;14.67;;;-0.70;99.90;;;;;;5054738;28;20216;-95
2022/12/19 09:56:26;;;;;;;23.00;13.90;;;-0.60;99.90;;;;;;5054687;28;20206;-95
2022/12/19 09:59:04;;;;;;;17.10;12.63;;;-0.60;99.90;;;;;;5055763;28;20205;-94
2022/12/19 10:01:39;;;;;;;19.10;13.27;;;-0.60;99.90;;;;;;5057060;28;20213;-96
2022/12/19 10:04:11;;;;;;;18.93;14.03;;;-0.60;99.90;;;;;;5057416;28;20221;-95
2022/12/19 10:06:40;;;;;;;18.80;13.87;;;-0.70;99.90;;;;;;5057883;28;20217;-94
2022/12/19 10:09:32;;;;;;;19.70;13.47;;;-0.60;99.90;;;;;;5061804;28;20217;-95
2022/12/19 10:12:43;;;;;;;24.80;14.53;;;-0.70;99.90;;;;;;5058619;28;20217;-96
2022/12/19 10:15:41;;;;;;;19.50;14.33;;;-0.60;99.90;;;;;;5056534;28;20230;-94
2022/12/19 10:18:35;;;;;;;24.07;13.87;;;-0.60;99.90;;;;;;5054559;28;20208;-95
2022/12/19 10:21:08;;;;;;;21.20;14.40;;;-0.50;99.90;;;;;;5054525;28;20206;-95
2022/12/19 10:24:29;;;;;;;26.80;16.10;;;-0.60;99.90;;;;;;5055724;28;20214;-95
2022/12/19 10:27:11;;;;;;;25.63;15.03;;;-0.60;99.90;;;;;;4995855;28;20220;-95
2022/12/19 10:29:53;;;;;;;25.07;14.83;;;-0.70;99.90;;;;;;5049949;28;20208;-94
2022/12/19 10:32:28;;;;;;;19.73;14.00;;;-0.70;99.90;;;;;;5064998;28;20198;-95
2022/12/19 10:34:58;;;;;;;23.07;14.67;;;-0.60;99.90;;;;;;5055305;28;20229;-95
2022/12/19 10:37:39;;;;;;;21.93;15.43;;;-0.60;99.90;;;;;;5054468;28;20209;-95
2022/12/19 10:40:23;;;;;;;26.90;15.10;;;-0.70;99.90;;;;;;5054843;28;20217;-94
2022/12/19 10:42:59;;;;;;;21.37;13.93;;;-0.70;99.90;;;;;;5055193;28;20297;-95
2022/12/19 10:45:45;;;;;;;18.23;14.07;;;-0.60;99.90;;;;;;5054203;28;20214;-95
2022/12/19 10:48:18;;;;;;;18.90;14.13;;;-0.50;99.90;;;;;;5053252;28;20237;-95
2022/12/19 10:50:50;;;;;;;22.70;13.00;;;-0.50;99.90;;;;;;5054196;28;20287;-95
2022/12/19 10:53:27;;;;;;;21.73;15.50;;;-0.50;99.90;;;;;;5054597;28;20212;-96
2022/12/19 10:56:00;;;;;;;23.90;16.07;;;-0.50;99.90;;;;;;5054716;28;20216;-95
2022/12/19 10:58:33;;;;;;;27.23;15.13;;;-0.40;99.90;;;;;;5058123;28;20201;-94
2022/12/19 11:01:30;;;;;;;23.07;14.83;;;-0.40;99.90;;;;;;5064522;28;20233;-95
2022/12/19 11:04:17;;;;;;;16.97;14.10;;;-0.40;99.90;;;;;;5058967;28;20232;-94
2022/12/19 11:06:49;;;;;;;26.00;14.87;;;-0.40;99.90;;;;;;5056019;28;20292;-95
2022/12/19 11:09:26;;;;;;;20.83;14.93;;;-0.40;99.90;;;;;;5053956;28;20260;-95
2022/12/19 11:12:01;;;;;;;18.77;14.47;;;-0.40;99.90;;;;;;5053585;28;20205;-95
2022/12/19 11:14:52;;;;;;;23.67;14.27;;;-0.40;99.90;;;;;;5053588;28;20234;-95
2022/12/19 11:17:42;;;;;;;18.37;13.70;;;-0.40;99.90;;;;;;5053539;28;20204;-94
2022/12/19 11:20:30;;;;;;;16.23;13.00;;;-0.40;99.90;;;;;;5053383;28;20216;-95
2022/12/19 11:23:19;;;;;;;21.07;12.73;;;-0.30;99.90;;;;;;5054265;28;20297;-95
2022/12/19 11:26:25;;;;;;;22.20;16.07;;;-0.30;99.90;;;;;;5053936;28;20216;-95
2022/12/19 11:29:19;;;;;;;23.93;15.37;;;-0.30;99.90;;;;;;5053453;28;20229;-96
2022/12/19 11:32:23;;;;;;;15.37;12.97;;;-0.40;99.90;;;;;;5053398;28;20224;-95
2022/12/19 11:35:17;;;;;;;22.13;14.73;;;-0.30;99.90;;;;;;5053789;28;20226;-94
2022/12/19 11:37:57;;;;;;;19.53;15.30;;;-0.40;99.90;;;;;;5053549;28;20263;-95
2022/12/19 11:40:34;;;;;;;21.80;15.77;;;-0.30;99.90;;;;;;5053391;28;20208;-93
2022/12/19 11:43:12;;;;;;;20.07;14.50;;;-0.30;99.90;;;;;;5053128;28;20202;-94
2022/12/19 11:46:10;;;;;;;17.33;12.87;;;-0.30;99.90;;;;;;5052832;28;20202;-94
2022/12/19 11:48:52;;;;;;;17.80;12.27;;;-0.30;99.90;;;;;;5053080;28;20221;-96
2022/12/19 11:51:28;;;;;;;25.07;16.30;;;-0.30;99.90;;;;;;5053009;28;20205;-94
2022/12/19 11:54:06;;;;;;;25.03;15.73;;;-0.30;99.90;;;;;;5054925;28;20267;-93
2022/12/19 11:56:37;;;;;;;22.60;15.70;;;-0.30;99.90;;;;;;5054883;28;20235;-95
2022/12/19 11:59:13;;;;;;;21.43;14.40;;;-0.30;99.90;;;;;;5053540;28;20269;-95
2022/12/19 12:01:54;;;;;;;18.97;14.53;;;-0.30;99.90;;;;;;5057076;28;20212;-95
2022/12/19 12:04:57;;;;;;;26.10;16.30;;;-0.30;99.90;;;;;;5057192;28;20233;-95
2022/12/19 12:07:35;;;;;;;23.53;14.83;;;-0.30;99.90;;;;;;5046318;28;20218;-95
2022/12/19 12:10:25;;;;;;;21.13;14.67;;;-0.30;99.90;;;;;;5058447;28;20202;-96
2022/12/19 12:13:21;;;;;;;27.17;15.73;;;-0.30;99.90;;;;;;5056881;28;20216;-95
2022/12/19 12:16:11;;;;;;;19.27;13.70;;;-0.30;99.90;;;;;;5056480;28;20212;-95
2022/12/19 12:19:14;;;;;;;19.10;14.70;;;-0.30;99.90;;;;;;5056656;28;20194;-95
2022/12/19 12:22:19;;;;;;;24.40;15.97;;;-0.30;99.90;;;;;;5056551;28;20201;-95
2022/12/19 12:25:29;;;;;;;24.63;16.40;;;-0.30;99.90;;;;;;5055845;28;20221;-94
2022/12/19 12:28:48;;;;;;;32.90;16.37;;;-0.30;99.90;;;;;;5056161;28;20221;-94
2022/12/19 12:31:54;;;;;;;21.73;13.40;;;-0.30;99.90;;;;;;5055908;28;20205;-95
2022/12/19 12:34:52;;;;;;;25.77;16.60;;;-0.40;99.90;;;;;;5056105;28;20248;-96
2022/12/19 12:37:52;;;;;;;23.07;15.90;;;-0.40;99.90;;;;;;5055944;28;20209;-95
2022/12/19 12:41:10;;;;;;;24.13;16.23;;;-0.30;99.90;;;;;;5056083;28;20201;-96
2022/12/19 12:43:58;;;;;;;23.00;16.63;;;-0.40;99.90;;;;;;5055912;28;20217;-95
2022/12/19 12:46:42;;;;;;;24.40;16.87;;;-0.30;99.90;;;;;;5056284;28;20213;-94
2022/12/19 12:49:24;;;;;;;22.70;16.53;;;-0.40;99.90;;;;;;5055767;28;20232;-95
2022/12/19 12:51:53;;;;;;;25.33;17.70;;;-0.30;99.90;;;;;;5052610;28;20301;-95
2022/12/19 12:54:32;;;;;;;24.10;16.50;;;-0.30;99.90;;;;;;5053225;28;20325;-95
2022/12/19 12:57:07;;;;;;;25.43;17.57;;;-0.30;99.90;;;;;;5052915;28;20285;-95
2022/12/19 12:59:35;;;;;;;34.47;18.50;;;-0.30;99.90;;;;;;5053471;28;20263;-95
2022/12/19 13:02:14;;;;;;;23.47;17.53;;;-0.30;99.90;;;;;;5053932;28;20220;-96
2022/12/19 13:04:55;;;;;;;32.17;17.53;;;-0.20;99.90;;;;;;5053479;28;20222;-95
2022/12/19 13:07:33;;;;;;;21.17;15.60;;;-0.20;99.90;;;;;;5053465;28;20286;-94
2022/12/19 13:10:26;;;;;;;26.90;16.03;;;-0.30;99.90;;;;;;5053436;28;20209;-96
2022/12/19 13:13:00;;;;;;;24.73;15.93;;;-0.30;99.90;;;;;;5053159;28;20240;-95
2022/12/19 13:15:38;;;;;;;20.57;16.77;;;-0.30;99.90;;;;;;5052976;28;20239;-95
2022/12/19 13:18:33;;;;;;;24.83;16.33;;;-0.30;99.90;;;;;;5052859;28;20256;-94
2022/12/19 13:21:08;;;;;;;21.37;16.00;;;-0.20;99.90;;;;;;5052854;28;20210;-94